Vananda, Canada
Current Conditions -  °F | °C
As of 7:00 PM on Thursday 30 Oct 2014 (Local Time) from CYPW Reporting Station
Light Rain Light Rain  
Wind Chill: 52°   Ceiling: 4000
Heat Index: 52°   Visibility: 10mi
Dew Point: 52°   Wind: 5mph
Humidity: 100%   Direction: 90°E
Pressure: 29.68"   Gusts: NA
Location:  49.76°N, 124.55°W
Report Text: CYPW 310200Z 09004KT 10SM -RA FEW008 SCT018 OVC040 11/11 A2968 RMK SF1SC2SC5 LAST OBS/NEXT 311300 UTC SLP050
Loading
Personal Weather Stations






























Interactive Weather Map
Tropical Storm Tracking
New forecast layout! Learn more

10-Day Weather Forecast

Advertisements
Track Severe Weather on mobile